sensor_id;sensor_type;location;lat;lon;timestamp;P1;durP1;ratioP1;P2;durP2;ratioP2
10100;SDS011;5090;51.258;4.436;2022-10-16T00:01:08;1.97;;;1.17;;
10100;SDS011;5090;51.258;4.436;2022-10-16T00:03:36;3.63;;;1.30;;
10100;SDS011;5090;51.258;4.436;2022-10-16T00:06:04;3.13;;;1.40;;
10100;SDS011;5090;51.258;4.436;2022-10-16T00:08:33;2.40;;;0.90;;
10100;SDS011;5090;51.258;4.436;2022-10-16T00:11:02;1.43;;;1.17;;
10100;SDS011;5090;51.258;4.436;2022-10-16T00:13:31;1.40;;;1.00;;
10100;SDS011;5090;51.258;4.436;2022-10-16T00:15:58;2.13;;;1.07;;
10100;SDS011;5090;51.258;4.436;2022-10-16T00:18:31;1.10;;;1.10;;
10100;SDS011;5090;51.258;4.436;2022-10-16T00:21:02;1.37;;;1.20;;
10100;SDS011;5090;51.258;4.436;2022-10-16T00:23:30;1.17;;;0.80;;
10100;SDS011;5090;51.258;4.436;2022-10-16T00:26:02;3.60;;;1.57;;
10100;SDS011;5090;51.258;4.436;2022-10-16T00:28:29;1.80;;;1.13;;
10100;SDS011;5090;51.258;4.436;2022-10-16T00:30:57;2.03;;;1.00;;
10100;SDS011;5090;51.258;4.436;2022-10-16T00:33:26;2.40;;;0.80;;
10100;SDS011;5090;51.258;4.436;2022-10-16T00:35:54;1.80;;;1.00;;
10100;SDS011;5090;51.258;4.436;2022-10-16T00:38:23;1.37;;;0.93;;
10100;SDS011;5090;51.258;4.436;2022-10-16T00:40:54;1.07;;;0.97;;
10100;SDS011;5090;51.258;4.436;2022-10-16T00:45:56;1.30;;;0.70;;
10100;SDS011;5090;51.258;4.436;2022-10-16T00:48:24;1.27;;;0.80;;
10100;SDS011;5090;51.258;4.436;2022-10-16T00:50:53;2.60;;;0.60;;
10100;SDS011;5090;51.258;4.436;2022-10-16T00:53:21;0.87;;;0.77;;
10100;SDS011;5090;51.258;4.436;2022-10-16T00:55:49;0.83;;;0.83;;
10100;SDS011;5090;51.258;4.436;2022-10-16T00:58:18;1.20;;;1.00;;
10100;SDS011;5090;51.258;4.436;2022-10-16T01:00:46;0.93;;;0.70;;
10100;SDS011;5090;51.258;4.436;2022-10-16T01:05:50;1.40;;;0.93;;
10100;SDS011;5090;51.258;4.436;2022-10-16T01:08:18;0.90;;;0.90;;
10100;SDS011;5090;51.258;4.436;2022-10-16T01:10:50;2.60;;;0.90;;
10100;SDS011;5090;51.258;4.436;2022-10-16T01:13:18;1.30;;;0.80;;
10100;SDS011;5090;51.258;4.436;2022-10-16T01:15:52;1.07;;;0.97;;
10100;SDS011;5090;51.258;4.436;2022-10-16T01:18:57;2.17;;;0.90;;
10100;SDS011;5090;51.258;4.436;2022-10-16T01:21:08;2.40;;;0.83;;
10100;SDS011;5090;51.258;4.436;2022-10-16T01:29:05;4.00;;;1.20;;
10100;SDS011;5090;51.258;4.436;2022-10-16T01:31:32;1.60;;;0.80;;
10100;SDS011;5090;51.258;4.436;2022-10-16T01:34:05;3.23;;;0.80;;
10100;SDS011;5090;51.258;4.436;2022-10-16T01:36:40;2.37;;;1.13;;
10100;SDS011;5090;51.258;4.436;2022-10-16T01:39:10;1.20;;;1.00;;
10100;SDS011;5090;51.258;4.436;2022-10-16T01:41:39;3.47;;;1.07;;
10100;SDS011;5090;51.258;4.436;2022-10-16T01:44:08;2.80;;;1.00;;
10100;SDS011;5090;51.258;4.436;2022-10-16T01:46:36;3.23;;;1.03;;
10100;SDS011;5090;51.258;4.436;2022-10-16T01:49:02;4.80;;;0.80;;
10100;SDS011;5090;51.258;4.436;2022-10-16T01:51:31;2.30;;;0.83;;
10100;SDS011;5090;51.258;4.436;2022-10-16T01:53:59;4.20;;;0.97;;
10100;SDS011;5090;51.258;4.436;2022-10-16T01:56:27;2.27;;;0.90;;
10100;SDS011;5090;51.258;4.436;2022-10-16T01:58:57;4.13;;;1.07;;
10100;SDS011;5090;51.258;4.436;2022-10-16T02:01:24;3.07;;;1.23;;
10100;SDS011;5090;51.258;4.436;2022-10-16T02:03:53;1.30;;;0.90;;
10100;SDS011;5090;51.258;4.436;2022-10-16T02:06:22;3.47;;;1.10;;
10100;SDS011;5090;51.258;4.436;2022-10-16T02:08:54;5.73;;;1.07;;
10100;SDS011;5090;51.258;4.436;2022-10-16T02:11:23;1.93;;;0.90;;
10100;SDS011;5090;51.258;4.436;2022-10-16T02:13:53;1.00;;;0.87;;
10100;SDS011;5090;51.258;4.436;2022-10-16T02:16:19;3.03;;;1.23;;
10100;SDS011;5090;51.258;4.436;2022-10-16T02:18:47;2.07;;;0.87;;
10100;SDS011;5090;51.258;4.436;2022-10-16T02:21:19;2.20;;;1.10;;
10100;SDS011;5090;51.258;4.436;2022-10-16T02:23:50;2.90;;;1.03;;
10100;SDS011;5090;51.258;4.436;2022-10-16T02:26:15;2.30;;;1.33;;
10100;SDS011;5090;51.258;4.436;2022-10-16T02:28:44;5.03;;;1.60;;
10100;SDS011;5090;51.258;4.436;2022-10-16T02:31:11;1.37;;;1.00;;
10100;SDS011;5090;51.258;4.436;2022-10-16T02:33:39;2.53;;;1.13;;
10100;SDS011;5090;51.258;4.436;2022-10-16T02:36:07;1.93;;;1.20;;
10100;SDS011;5090;51.258;4.436;2022-10-16T02:38:35;1.80;;;1.10;;
10100;SDS011;5090;51.258;4.436;2022-10-16T02:41:04;3.80;;;1.47;;
10100;SDS011;5090;51.258;4.436;2022-10-16T02:43:32;1.73;;;1.00;;
10100;SDS011;5090;51.258;4.436;2022-10-16T02:46:00;3.00;;;1.23;;
10100;SDS011;5090;51.258;4.436;2022-10-16T02:48:28;1.60;;;1.33;;
10100;SDS011;5090;51.258;4.436;2022-10-16T02:50:57;1.60;;;1.10;;
10100;SDS011;5090;51.258;4.436;2022-10-16T02:53:25;2.23;;;1.10;;
10100;SDS011;5090;51.258;4.436;2022-10-16T02:55:53;2.20;;;1.27;;
10100;SDS011;5090;51.258;4.436;2022-10-16T02:58:21;3.40;;;1.20;;
10100;SDS011;5090;51.258;4.436;2022-10-16T03:00:50;3.07;;;0.97;;
10100;SDS011;5090;51.258;4.436;2022-10-16T03:03:18;3.37;;;1.30;;
10100;SDS011;5090;51.258;4.436;2022-10-16T03:05:46;2.20;;;1.07;;
10100;SDS011;5090;51.258;4.436;2022-10-16T03:08:14;1.47;;;1.20;;
10100;SDS011;5090;51.258;4.436;2022-10-16T03:10:42;2.83;;;1.13;;
10100;SDS011;5090;51.258;4.436;2022-10-16T03:13:11;1.47;;;1.10;;
10100;SDS011;5090;51.258;4.436;2022-10-16T03:15:39;2.83;;;1.37;;
10100;SDS011;5090;51.258;4.436;2022-10-16T03:18:07;2.60;;;1.50;;
10100;SDS011;5090;51.258;4.436;2022-10-16T03:20:36;2.50;;;1.63;;
10100;SDS011;5090;51.258;4.436;2022-10-16T03:23:05;2.73;;;1.03;;
10100;SDS011;5090;51.258;4.436;2022-10-16T03:25:33;2.27;;;1.33;;
10100;SDS011;5090;51.258;4.436;2022-10-16T03:28:02;2.67;;;1.30;;
10100;SDS011;5090;51.258;4.436;2022-10-16T03:30:30;1.20;;;1.10;;
10100;SDS011;5090;51.258;4.436;2022-10-16T03:32:59;3.37;;;1.20;;
10100;SDS011;5090;51.258;4.436;2022-10-16T03:35:27;1.77;;;1.20;;
10100;SDS011;5090;51.258;4.436;2022-10-16T03:37:55;4.00;;;1.30;;
10100;SDS011;5090;51.258;4.436;2022-10-16T03:40:24;2.53;;;1.40;;
10100;SDS011;5090;51.258;4.436;2022-10-16T03:42:52;3.03;;;1.03;;
10100;SDS011;5090;51.258;4.436;2022-10-16T03:45:20;2.00;;;1.43;;
10100;SDS011;5090;51.258;4.436;2022-10-16T03:47:49;2.10;;;1.13;;
10100;SDS011;5090;51.258;4.436;2022-10-16T03:50:17;3.70;;;1.50;;
10100;SDS011;5090;51.258;4.436;2022-10-16T03:52:45;3.13;;;1.30;;
10100;SDS011;5090;51.258;4.436;2022-10-16T03:55:14;2.37;;;1.40;;
10100;SDS011;5090;51.258;4.436;2022-10-16T03:57:42;3.57;;;1.60;;
10100;SDS011;5090;51.258;4.436;2022-10-16T04:00:11;3.37;;;1.57;;
10100;SDS011;5090;51.258;4.436;2022-10-16T04:02:39;3.93;;;1.60;;
10100;SDS011;5090;51.258;4.436;2022-10-16T04:05:08;3.33;;;1.53;;
10100;SDS011;5090;51.258;4.436;2022-10-16T04:07:37;4.97;;;1.70;;
10100;SDS011;5090;51.258;4.436;2022-10-16T04:10:05;6.60;;;1.30;;
10100;SDS011;5090;51.258;4.436;2022-10-16T04:12:34;6.20;;;1.30;;
10100;SDS011;5090;51.258;4.436;2022-10-16T04:15:06;4.47;;;1.40;;
10100;SDS011;5090;51.258;4.436;2022-10-16T04:17:35;2.80;;;1.30;;
10100;SDS011;5090;51.258;4.436;2022-10-16T04:20:03;4.57;;;1.50;;
10100;SDS011;5090;51.258;4.436;2022-10-16T04:22:32;3.70;;;1.60;;
10100;SDS011;5090;51.258;4.436;2022-10-16T04:25:01;3.10;;;1.40;;
10100;SDS011;5090;51.258;4.436;2022-10-16T04:27:30;2.00;;;1.40;;
10100;SDS011;5090;51.258;4.436;2022-10-16T04:29:58;3.67;;;1.40;;
10100;SDS011;5090;51.258;4.436;2022-10-16T04:32:26;3.07;;;1.63;;
10100;SDS011;5090;51.258;4.436;2022-10-16T04:34:54;4.10;;;1.53;;
10100;SDS011;5090;51.258;4.436;2022-10-16T04:37:23;1.53;;;1.20;;
10100;SDS011;5090;51.258;4.436;2022-10-16T04:39:51;5.23;;;1.50;;
10100;SDS011;5090;51.258;4.436;2022-10-16T04:42:20;1.87;;;1.40;;
10100;SDS011;5090;51.258;4.436;2022-10-16T04:44:48;3.00;;;1.47;;
10100;SDS011;5090;51.258;4.436;2022-10-16T04:47:16;2.10;;;1.63;;
10100;SDS011;5090;51.258;4.436;2022-10-16T04:49:45;2.77;;;1.40;;
10100;SDS011;5090;51.258;4.436;2022-10-16T04:52:13;2.53;;;1.30;;
10100;SDS011;5090;51.258;4.436;2022-10-16T04:54:41;5.07;;;1.73;;
10100;SDS011;5090;51.258;4.436;2022-10-16T04:57:09;6.20;;;1.90;;
10100;SDS011;5090;51.258;4.436;2022-10-16T04:59:41;8.17;;;1.87;;
10100;SDS011;5090;51.258;4.436;2022-10-16T05:02:10;4.33;;;1.53;;
10100;SDS011;5090;51.258;4.436;2022-10-16T05:04:38;3.83;;;1.70;;
10100;SDS011;5090;51.258;4.436;2022-10-16T05:07:06;3.53;;;1.90;;
10100;SDS011;5090;51.258;4.436;2022-10-16T05:09:35;2.77;;;1.60;;
10100;SDS011;5090;51.258;4.436;2022-10-16T05:12:03;6.50;;;2.00;;
10100;SDS011;5090;51.258;4.436;2022-10-16T05:14:32;5.17;;;1.80;;
10100;SDS011;5090;51.258;4.436;2022-10-16T05:17:00;2.50;;;1.47;;
10100;SDS011;5090;51.258;4.436;2022-10-16T05:19:28;4.27;;;2.20;;
10100;SDS011;5090;51.258;4.436;2022-10-16T05:21:57;3.13;;;1.70;;
10100;SDS011;5090;51.258;4.436;2022-10-16T05:24:25;3.33;;;1.57;;
10100;SDS011;5090;51.258;4.436;2022-10-16T05:26:53;3.83;;;1.40;;
10100;SDS011;5090;51.258;4.436;2022-10-16T05:29:21;7.03;;;1.60;;
10100;SDS011;5090;51.258;4.436;2022-10-16T05:31:51;4.50;;;1.70;;
10100;SDS011;5090;51.258;4.436;2022-10-16T05:34:19;4.63;;;1.47;;
10100;SDS011;5090;51.258;4.436;2022-10-16T05:36:49;1.80;;;1.57;;
10100;SDS011;5090;51.258;4.436;2022-10-16T05:39:19;4.80;;;1.80;;
10100;SDS011;5090;51.258;4.436;2022-10-16T05:41:49;2.50;;;1.40;;
10100;SDS011;5090;51.258;4.436;2022-10-16T05:44:16;3.53;;;1.70;;
10100;SDS011;5090;51.258;4.436;2022-10-16T05:46:45;6.03;;;1.57;;
10100;SDS011;5090;51.258;4.436;2022-10-16T05:49:12;3.40;;;1.70;;
10100;SDS011;5090;51.258;4.436;2022-10-16T05:51:40;5.57;;;1.50;;
10100;SDS011;5090;51.258;4.436;2022-10-16T05:54:08;4.73;;;1.83;;
10100;SDS011;5090;51.258;4.436;2022-10-16T05:56:37;2.90;;;1.80;;
10100;SDS011;5090;51.258;4.436;2022-10-16T05:59:05;11.27;;;1.50;;
10100;SDS011;5090;51.258;4.436;2022-10-16T06:01:33;6.30;;;1.90;;
10100;SDS011;5090;51.258;4.436;2022-10-16T06:04:01;6.03;;;1.50;;
10100;SDS011;5090;51.258;4.436;2022-10-16T06:06:29;2.17;;;1.87;;
10100;SDS011;5090;51.258;4.436;2022-10-16T06:08:58;5.30;;;1.80;;
10100;SDS011;5090;51.258;4.436;2022-10-16T06:11:27;4.90;;;1.90;;
10100;SDS011;5090;51.258;4.436;2022-10-16T06:13:55;2.63;;;2.10;;
10100;SDS011;5090;51.258;4.436;2022-10-16T06:16:23;4.47;;;1.93;;
10100;SDS011;5090;51.258;4.436;2022-10-16T06:18:52;4.97;;;2.00;;
10100;SDS011;5090;51.258;4.436;2022-10-16T06:21:20;10.40;;;2.37;;
10100;SDS011;5090;51.258;4.436;2022-10-16T06:23:48;5.00;;;2.43;;
10100;SDS011;5090;51.258;4.436;2022-10-16T06:26:18;5.83;;;2.47;;
10100;SDS011;5090;51.258;4.436;2022-10-16T06:28:45;18.30;;;2.33;;
10100;SDS011;5090;51.258;4.436;2022-10-16T06:31:13;3.90;;;2.07;;
10100;SDS011;5090;51.258;4.436;2022-10-16T06:33:42;6.33;;;1.80;;
10100;SDS011;5090;51.258;4.436;2022-10-16T06:36:11;3.30;;;1.90;;
10100;SDS011;5090;51.258;4.436;2022-10-16T06:38:38;4.20;;;1.67;;
10100;SDS011;5090;51.258;4.436;2022-10-16T06:41:06;7.13;;;1.80;;
10100;SDS011;5090;51.258;4.436;2022-10-16T06:43:34;3.63;;;2.20;;
10100;SDS011;5090;51.258;4.436;2022-10-16T06:46:03;6.83;;;2.67;;
10100;SDS011;5090;51.258;4.436;2022-10-16T06:48:31;6.87;;;1.63;;
10100;SDS011;5090;51.258;4.436;2022-10-16T06:51:00;4.87;;;2.10;;
10100;SDS011;5090;51.258;4.436;2022-10-16T06:53:29;4.20;;;1.77;;
10100;SDS011;5090;51.258;4.436;2022-10-16T06:55:56;5.90;;;2.37;;
10100;SDS011;5090;51.258;4.436;2022-10-16T06:58:24;5.47;;;2.13;;
10100;SDS011;5090;51.258;4.436;2022-10-16T07:00:54;8.97;;;1.60;;
10100;SDS011;5090;51.258;4.436;2022-10-16T07:03:22;7.63;;;2.07;;
10100;SDS011;5090;51.258;4.436;2022-10-16T07:05:51;3.33;;;1.83;;
10100;SDS011;5090;51.258;4.436;2022-10-16T07:08:19;5.07;;;2.23;;
10100;SDS011;5090;51.258;4.436;2022-10-16T07:10:47;3.40;;;1.90;;
10100;SDS011;5090;51.258;4.436;2022-10-16T07:13:16;6.13;;;2.00;;
10100;SDS011;5090;51.258;4.436;2022-10-16T07:15:44;3.80;;;2.00;;
10100;SDS011;5090;51.258;4.436;2022-10-16T07:18:13;3.00;;;1.70;;
10100;SDS011;5090;51.258;4.436;2022-10-16T07:20:43;5.53;;;2.03;;
10100;SDS011;5090;51.258;4.436;2022-10-16T07:23:11;4.70;;;1.87;;
10100;SDS011;5090;51.258;4.436;2022-10-16T07:25:40;6.30;;;1.90;;
10100;SDS011;5090;51.258;4.436;2022-10-16T07:28:08;5.40;;;1.80;;
10100;SDS011;5090;51.258;4.436;2022-10-16T07:30:36;5.20;;;1.90;;
10100;SDS011;5090;51.258;4.436;2022-10-16T07:33:04;4.00;;;1.83;;
10100;SDS011;5090;51.258;4.436;2022-10-16T07:35:32;2.87;;;1.63;;
10100;SDS011;5090;51.258;4.436;2022-10-16T07:38:01;4.90;;;1.40;;
10100;SDS011;5090;51.258;4.436;2022-10-16T07:40:30;3.60;;;2.00;;
10100;SDS011;5090;51.258;4.436;2022-10-16T07:43:00;2.67;;;1.57;;
10100;SDS011;5090;51.258;4.436;2022-10-16T07:45:32;4.83;;;1.53;;
10100;SDS011;5090;51.258;4.436;2022-10-16T07:48:00;3.80;;;1.60;;
10100;SDS011;5090;51.258;4.436;2022-10-16T07:50:28;6.23;;;1.37;;
10100;SDS011;5090;51.258;4.436;2022-10-16T07:53:07;4.23;;;1.60;;
10100;SDS011;5090;51.258;4.436;2022-10-16T07:55:36;3.40;;;1.87;;
10100;SDS011;5090;51.258;4.436;2022-10-16T07:58:05;3.20;;;1.20;;
10100;SDS011;5090;51.258;4.436;2022-10-16T08:00:35;3.73;;;1.43;;
10100;SDS011;5090;51.258;4.436;2022-10-16T08:03:16;3.10;;;1.33;;
10100;SDS011;5090;51.258;4.436;2022-10-16T08:05:48;5.50;;;1.57;;
10100;SDS011;5090;51.258;4.436;2022-10-16T08:08:22;3.90;;;1.30;;
10100;SDS011;5090;51.258;4.436;2022-10-16T08:10:51;1.53;;;1.10;;
10100;SDS011;5090;51.258;4.436;2022-10-16T08:13:20;5.63;;;1.83;;
10100;SDS011;5090;51.258;4.436;2022-10-16T08:15:48;5.60;;;1.45;;
10100;SDS011;5090;51.258;4.436;2022-10-16T08:18:17;4.95;;;1.70;;
10100;SDS011;5090;51.258;4.436;2022-10-16T08:20:54;6.18;;;1.23;;
10100;SDS011;5090;51.258;4.436;2022-10-16T08:23:19;3.47;;;1.80;;
10100;SDS011;5090;51.258;4.436;2022-10-16T08:25:48;3.67;;;1.50;;
10100;SDS011;5090;51.258;4.436;2022-10-16T08:28:17;6.37;;;1.58;;
10100;SDS011;5090;51.258;4.436;2022-10-16T08:30:47;7.72;;;1.62;;
10100;SDS011;5090;51.258;4.436;2022-10-16T08:33:15;5.30;;;1.60;;
10100;SDS011;5090;51.258;4.436;2022-10-16T08:35:50;3.78;;;1.30;;
10100;SDS011;5090;51.258;4.436;2022-10-16T08:38:21;4.75;;;1.65;;
10100;SDS011;5090;51.258;4.436;2022-10-16T08:40:50;4.00;;;0.80;;
10100;SDS011;5090;51.258;4.436;2022-10-16T08:43:35;3.47;;;1.62;;
10100;SDS011;5090;51.258;4.436;2022-10-16T08:46:08;5.78;;;1.30;;
10100;SDS011;5090;51.258;4.436;2022-10-16T08:48:35;3.78;;;1.10;;
10100;SDS011;5090;51.258;4.436;2022-10-16T08:51:03;3.30;;;1.25;;
10100;SDS011;5090;51.258;4.436;2022-10-16T08:53:51;6.18;;;1.42;;
10100;SDS011;5090;51.258;4.436;2022-10-16T08:56:17;5.82;;;1.33;;
10100;SDS011;5090;51.258;4.436;2022-10-16T08:58:48;2.28;;;1.08;;
10100;SDS011;5090;51.258;4.436;2022-10-16T09:01:17;1.55;;;1.00;;
10100;SDS011;5090;51.258;4.436;2022-10-16T09:06:25;3.83;;;1.42;;
10100;SDS011;5090;51.258;4.436;2022-10-16T09:11:33;6.35;;;1.30;;
10100;SDS011;5090;51.258;4.436;2022-10-16T09:14:03;7.82;;;1.45;;
10100;SDS011;5090;51.258;4.436;2022-10-16T09:16:30;4.28;;;1.20;;
10100;SDS011;5090;51.258;4.436;2022-10-16T09:19:00;7.62;;;1.35;;
10100;SDS011;5090;51.258;4.436;2022-10-16T09:21:28;7.03;;;1.37;;
10100;SDS011;5090;51.258;4.436;2022-10-16T09:23:57;5.80;;;1.30;;
10100;SDS011;5090;51.258;4.436;2022-10-16T09:26:23;5.40;;;1.23;;
10100;SDS011;5090;51.258;4.436;2022-10-16T09:28:52;4.90;;;1.08;;
10100;SDS011;5090;51.258;4.436;2022-10-16T09:31:21;7.07;;;1.40;;
10100;SDS011;5090;51.258;4.436;2022-10-16T09:33:52;7.53;;;1.77;;
10100;SDS011;5090;51.258;4.436;2022-10-16T09:36:18;4.97;;;1.35;;
10100;SDS011;5090;51.258;4.436;2022-10-16T09:38:47;7.30;;;1.50;;
10100;SDS011;5090;51.258;4.436;2022-10-16T09:41:17;5.18;;;1.00;;
10100;SDS011;5090;51.258;4.436;2022-10-16T09:43:48;5.43;;;1.15;;
10100;SDS011;5090;51.258;4.436;2022-10-16T09:46:29;3.00;;;1.10;;
10100;SDS011;5090;51.258;4.436;2022-10-16T09:48:59;3.25;;;1.33;;
10100;SDS011;5090;51.258;4.436;2022-10-16T09:51:28;7.15;;;1.27;;
10100;SDS011;5090;51.258;4.436;2022-10-16T09:53:57;6.97;;;1.20;;
10100;SDS011;5090;51.258;4.436;2022-10-16T09:56:25;3.67;;;1.20;;
10100;SDS011;5090;51.258;4.436;2022-10-16T09:58:53;5.35;;;1.17;;
10100;SDS011;5090;51.258;4.436;2022-10-16T10:01:22;6.65;;;0.98;;
10100;SDS011;5090;51.258;4.436;2022-10-16T10:03:50;6.10;;;1.10;;
10100;SDS011;5090;51.258;4.436;2022-10-16T10:06:25;7.35;;;2.35;;
10100;SDS011;5090;51.258;4.436;2022-10-16T10:08:55;10.13;;;1.77;;
10100;SDS011;5090;51.258;4.436;2022-10-16T10:14:04;5.22;;;1.50;;
10100;SDS011;5090;51.258;4.436;2022-10-16T10:16:31;10.05;;;1.45;;
10100;SDS011;5090;51.258;4.436;2022-10-16T10:19:00;5.93;;;1.35;;
10100;SDS011;5090;51.258;4.436;2022-10-16T10:21:28;7.43;;;1.33;;
10100;SDS011;5090;51.258;4.436;2022-10-16T10:23:56;8.15;;;1.40;;
10100;SDS011;5090;51.258;4.436;2022-10-16T10:26:24;4.97;;;1.15;;
10100;SDS011;5090;51.258;4.436;2022-10-16T10:28:59;10.25;;;1.52;;
10100;SDS011;5090;51.258;4.436;2022-10-16T10:31:27;9.55;;;1.58;;
10100;SDS011;5090;51.258;4.436;2022-10-16T10:33:58;4.68;;;0.98;;
10100;SDS011;5090;51.258;4.436;2022-10-16T10:39:00;7.35;;;1.37;;
10100;SDS011;5090;51.258;4.436;2022-10-16T10:41:51;6.72;;;1.50;;
10100;SDS011;5090;51.258;4.436;2022-10-16T10:44:14;9.00;;;1.80;;
10100;SDS011;5090;51.258;4.436;2022-10-16T10:46:42;5.55;;;0.80;;
10100;SDS011;5090;51.258;4.436;2022-10-16T10:49:44;7.28;;;1.35;;
10100;SDS011;5090;51.258;4.436;2022-10-16T10:57:41;7.32;;;1.10;;
10100;SDS011;5090;51.258;4.436;2022-10-16T11:00:25;6.62;;;1.20;;
10100;SDS011;5090;51.258;4.436;2022-10-16T11:02:53;9.40;;;1.60;;
10100;SDS011;5090;51.258;4.436;2022-10-16T11:05:38;7.12;;;1.50;;
10100;SDS011;5090;51.258;4.436;2022-10-16T11:08:09;8.88;;;1.12;;
10100;SDS011;5090;51.258;4.436;2022-10-16T11:10:42;8.63;;;1.62;;
10100;SDS011;5090;51.258;4.436;2022-10-16T11:13:14;3.92;;;1.25;;
10100;SDS011;5090;51.258;4.436;2022-10-16T11:15:39;11.30;;;1.55;;
10100;SDS011;5090;51.258;4.436;2022-10-16T11:18:08;5.68;;;1.25;;
10100;SDS011;5090;51.258;4.436;2022-10-16T11:20:40;4.72;;;1.10;;
10100;SDS011;5090;51.258;4.436;2022-10-16T11:25:50;4.78;;;1.10;;
10100;SDS011;5090;51.258;4.436;2022-10-16T11:28:20;7.35;;;1.85;;
10100;SDS011;5090;51.258;4.436;2022-10-16T11:30:50;6.05;;;0.82;;
10100;SDS011;5090;51.258;4.436;2022-10-16T11:36:06;4.05;;;1.25;;
10100;SDS011;5090;51.258;4.436;2022-10-16T11:41:27;7.07;;;1.58;;
10100;SDS011;5090;51.258;4.436;2022-10-16T11:43:58;7.32;;;1.67;;
10100;SDS011;5090;51.258;4.436;2022-10-16T11:46:21;9.85;;;1.73;;
10100;SDS011;5090;51.258;4.436;2022-10-16T11:48:56;5.43;;;1.42;;
10100;SDS011;5090;51.258;4.436;2022-10-16T11:51:29;7.22;;;1.52;;
10100;SDS011;5090;51.258;4.436;2022-10-16T11:53:55;6.12;;;1.25;;
10100;SDS011;5090;51.258;4.436;2022-10-16T11:56:21;8.20;;;1.60;;
10100;SDS011;5090;51.258;4.436;2022-10-16T11:58:52;7.70;;;1.27;;
10100;SDS011;5090;51.258;4.436;2022-10-16T12:01:26;7.20;;;1.23;;
10100;SDS011;5090;51.258;4.436;2022-10-16T12:03:59;9.02;;;1.67;;
10100;SDS011;5090;51.258;4.436;2022-10-16T12:06:31;8.95;;;1.05;;
10100;SDS011;5090;51.258;4.436;2022-10-16T12:08:59;6.75;;;1.42;;
10100;SDS011;5090;51.258;4.436;2022-10-16T12:11:32;6.10;;;1.30;;
10100;SDS011;5090;51.258;4.436;2022-10-16T12:16:33;11.68;;;1.33;;
10100;SDS011;5090;51.258;4.436;2022-10-16T12:19:07;6.95;;;1.20;;
10100;SDS011;5090;51.258;4.436;2022-10-16T12:21:30;5.65;;;1.30;;
10100;SDS011;5090;51.258;4.436;2022-10-16T12:24:00;4.10;;;1.00;;
10100;SDS011;5090;51.258;4.436;2022-10-16T12:26:28;6.80;;;1.20;;
10100;SDS011;5090;51.258;4.436;2022-10-16T12:28:56;5.15;;;0.93;;
10100;SDS011;5090;51.258;4.436;2022-10-16T12:31:25;9.15;;;1.52;;
10100;SDS011;5090;51.258;4.436;2022-10-16T12:34:00;4.80;;;0.93;;
10100;SDS011;5090;51.258;4.436;2022-10-16T12:36:31;6.43;;;1.00;;
10100;SDS011;5090;51.258;4.436;2022-10-16T12:38:59;4.68;;;0.98;;
10100;SDS011;5090;51.258;4.436;2022-10-16T12:41:29;6.07;;;1.25;;
10100;SDS011;5090;51.258;4.436;2022-10-16T12:43:57;5.65;;;1.48;;
10100;SDS011;5090;51.258;4.436;2022-10-16T12:46:37;4.32;;;0.80;;
10100;SDS011;5090;51.258;4.436;2022-10-16T12:49:21;4.50;;;1.23;;
10100;SDS011;5090;51.258;4.436;2022-10-16T12:51:35;10.13;;;0.95;;
10100;SDS011;5090;51.258;4.436;2022-10-16T12:54:11;5.00;;;1.40;;
10100;SDS011;5090;51.258;4.436;2022-10-16T12:56:36;6.82;;;1.25;;
10100;SDS011;5090;51.258;4.436;2022-10-16T12:59:05;7.37;;;1.30;;
10100;SDS011;5090;51.258;4.436;2022-10-16T13:01:34;5.70;;;1.48;;
10100;SDS011;5090;51.258;4.436;2022-10-16T13:04:06;6.95;;;0.90;;
10100;SDS011;5090;51.258;4.436;2022-10-16T13:06:37;5.75;;;1.00;;
10100;SDS011;5090;51.258;4.436;2022-10-16T13:09:07;5.55;;;1.10;;
10100;SDS011;5090;51.258;4.436;2022-10-16T13:16:48;5.25;;;1.00;;
10100;SDS011;5090;51.258;4.436;2022-10-16T13:24:48;8.88;;;1.50;;
10100;SDS011;5090;51.258;4.436;2022-10-16T13:27:18;8.45;;;1.35;;
10100;SDS011;5090;51.258;4.436;2022-10-16T13:29:43;6.18;;;1.30;;
10100;SDS011;5090;51.258;4.436;2022-10-16T13:32:11;2.42;;;0.80;;
10100;SDS011;5090;51.258;4.436;2022-10-16T13:34:45;4.18;;;1.02;;
10100;SDS011;5090;51.258;4.436;2022-10-16T13:37:16;3.47;;;0.80;;
10100;SDS011;5090;51.258;4.436;2022-10-16T13:39:43;3.65;;;0.90;;
10100;SDS011;5090;51.258;4.436;2022-10-16T13:42:22;5.12;;;1.00;;
10100;SDS011;5090;51.258;4.436;2022-10-16T13:44:44;6.55;;;1.23;;
10100;SDS011;5090;51.258;4.436;2022-10-16T13:47:20;2.72;;;0.85;;
10100;SDS011;5090;51.258;4.436;2022-10-16T13:52:23;4.70;;;1.20;;
10100;SDS011;5090;51.258;4.436;2022-10-16T13:54:52;4.68;;;1.23;;
10100;SDS011;5090;51.258;4.436;2022-10-16T13:57:21;2.62;;;0.75;;
10100;SDS011;5090;51.258;4.436;2022-10-16T13:59:53;3.67;;;0.85;;
10100;SDS011;5090;51.258;4.436;2022-10-16T14:02:25;2.03;;;0.70;;
10100;SDS011;5090;51.258;4.436;2022-10-16T14:04:51;4.18;;;0.80;;
10100;SDS011;5090;51.258;4.436;2022-10-16T14:07:21;3.87;;;1.50;;
10100;SDS011;5090;51.258;4.436;2022-10-16T14:09:53;3.05;;;0.80;;
10100;SDS011;5090;51.258;4.436;2022-10-16T14:12:21;3.50;;;0.80;;
10100;SDS011;5090;51.258;4.436;2022-10-16T14:14:50;3.92;;;0.80;;
10100;SDS011;5090;51.258;4.436;2022-10-16T14:17:20;1.48;;;0.93;;
10100;SDS011;5090;51.258;4.436;2022-10-16T14:19:48;5.35;;;0.75;;
10100;SDS011;5090;51.258;4.436;2022-10-16T14:22:48;6.05;;;0.82;;
10100;SDS011;5090;51.258;4.436;2022-10-16T14:25:00;3.50;;;0.82;;
10100;SDS011;5090;51.258;4.436;2022-10-16T14:27:31;2.83;;;0.70;;
10100;SDS011;5090;51.258;4.436;2022-10-16T14:32:31;4.22;;;0.88;;
10100;SDS011;5090;51.258;4.436;2022-10-16T14:35:00;7.37;;;0.90;;
10100;SDS011;5090;51.258;4.436;2022-10-16T14:37:28;6.75;;;1.17;;
10100;SDS011;5090;51.258;4.436;2022-10-16T14:39:56;3.28;;;1.00;;
10100;SDS011;5090;51.258;4.436;2022-10-16T14:42:24;1.85;;;0.77;;
10100;SDS011;5090;51.258;4.436;2022-10-16T14:44:53;3.50;;;1.20;;
10100;SDS011;5090;51.258;4.436;2022-10-16T14:47:25;2.92;;;1.00;;
10100;SDS011;5090;51.258;4.436;2022-10-16T14:49:53;3.97;;;1.00;;
10100;SDS011;5090;51.258;4.436;2022-10-16T14:52:22;7.68;;;2.62;;
10100;SDS011;5090;51.258;4.436;2022-10-16T14:54:51;3.65;;;1.37;;
10100;SDS011;5090;51.258;4.436;2022-10-16T14:57:19;3.20;;;1.60;;
10100;SDS011;5090;51.258;4.436;2022-10-16T14:59:51;4.35;;;0.90;;
10100;SDS011;5090;51.258;4.436;2022-10-16T15:02:28;3.28;;;0.93;;
10100;SDS011;5090;51.258;4.436;2022-10-16T15:04:57;3.55;;;1.30;;
10100;SDS011;5090;51.258;4.436;2022-10-16T15:07:25;3.30;;;1.87;;
10100;SDS011;5090;51.258;4.436;2022-10-16T15:09:53;4.20;;;1.70;;
10100;SDS011;5090;51.258;4.436;2022-10-16T15:12:24;3.65;;;1.00;;
10100;SDS011;5090;51.258;4.436;2022-10-16T15:14:54;2.08;;;0.68;;
10100;SDS011;5090;51.258;4.436;2022-10-16T15:17:22;3.70;;;0.90;;
10100;SDS011;5090;51.258;4.436;2022-10-16T15:19:50;4.12;;;0.77;;
10100;SDS011;5090;51.258;4.436;2022-10-16T15:22:19;5.43;;;0.98;;
10100;SDS011;5090;51.258;4.436;2022-10-16T15:24:47;2.22;;;0.77;;
10100;SDS011;5090;51.258;4.436;2022-10-16T15:27:18;4.75;;;1.40;;
10100;SDS011;5090;51.258;4.436;2022-10-16T15:29:47;3.17;;;1.10;;
10100;SDS011;5090;51.258;4.436;2022-10-16T15:32:28;5.82;;;1.10;;
10100;SDS011;5090;51.258;4.436;2022-10-16T15:34:57;3.25;;;1.00;;
10100;SDS011;5090;51.258;4.436;2022-10-16T15:37:27;2.35;;;1.20;;
10100;SDS011;5090;51.258;4.436;2022-10-16T15:39:55;3.25;;;0.90;;
10100;SDS011;5090;51.258;4.436;2022-10-16T15:42:24;3.28;;;1.45;;
10100;SDS011;5090;51.258;4.436;2022-10-16T15:44:52;3.87;;;1.27;;
10100;SDS011;5090;51.258;4.436;2022-10-16T15:47:20;3.97;;;1.00;;
10100;SDS011;5090;51.258;4.436;2022-10-16T15:49:49;2.47;;;0.68;;
10100;SDS011;5090;51.258;4.436;2022-10-16T15:52:17;3.70;;;1.12;;
10100;SDS011;5090;51.258;4.436;2022-10-16T15:54:46;5.47;;;1.70;;
10100;SDS011;5090;51.258;4.436;2022-10-16T15:57:18;5.07;;;1.58;;
10100;SDS011;5090;51.258;4.436;2022-10-16T15:59:47;4.87;;;1.30;;
10100;SDS011;5090;51.258;4.436;2022-10-16T16:02:21;4.25;;;1.92;;
10100;SDS011;5090;51.258;4.436;2022-10-16T16:04:50;2.33;;;1.30;;
10100;SDS011;5090;51.258;4.436;2022-10-16T16:07:18;5.55;;;2.10;;